Time;durP1;ratioP1;P1;durP2;ratioP2;P2;SDS_P1;SDS_P2;PMS_P1;PMS_P2;Temp;Humidity;BMP_temperature;BMP_pressure;BME280_temperature;BME280_humidity;BME280_pressure;Samples;Min_cycle;Max_cycle;Signal;HPM_P1;HPM_P2
2023/07/26 00:00:26;;;;;;;3.35;1.52;;;13.30;99.90;;;;;;5095429;28;20199;-64
2023/07/26 00:02:53;;;;;;;5.80;1.90;;;13.40;99.90;;;;;;5093896;28;20226;-64
2023/07/26 00:05:20;;;;;;;3.03;1.60;;;13.30;99.90;;;;;;5094357;28;20282;-64
2023/07/26 00:07:48;;;;;;;2.88;1.73;;;13.20;99.90;;;;;;5090346;28;20207;-65
2023/07/26 00:10:15;;;;;;;2.75;1.42;;;13.30;99.90;;;;;;5089011;28;20704;-64
2023/07/26 00:12:42;;;;;;;4.32;1.63;;;13.30;99.90;;;;;;5075566;28;20199;-65
2023/07/26 00:15:10;;;;;;;3.83;1.90;;;13.30;99.90;;;;;;5092013;28;20671;-64
2023/07/26 00:17:37;;;;;;;3.67;2.20;;;13.30;99.90;;;;;;5094084;28;20195;-64
2023/07/26 00:20:04;;;;;;;2.60;1.92;;;13.40;99.90;;;;;;5094114;28;20291;-64
2023/07/26 00:22:31;;;;;;;4.40;1.92;;;13.20;99.90;;;;;;5088979;28;20206;-64
2023/07/26 00:25:00;;;;;;;5.03;2.10;;;13.20;99.90;;;;;;5092154;28;20580;-64
2023/07/26 00:27:27;;;;;;;5.40;1.90;;;13.20;99.90;;;;;;5073464;28;20211;-64
2023/07/26 00:29:54;;;;;;;1.70;1.30;;;13.20;99.90;;;;;;5093960;28;20723;-65
2023/07/26 00:32:21;;;;;;;8.70;1.77;;;13.10;99.90;;;;;;5092954;28;20660;-64
2023/07/26 00:34:47;;;;;;;2.90;1.58;;;13.20;99.90;;;;;;5092980;28;20211;-64
2023/07/26 00:37:14;;;;;;;1.85;1.55;;;13.20;99.90;;;;;;5089171;28;20206;-64
2023/07/26 00:39:41;;;;;;;2.25;1.67;;;13.20;99.90;;;;;;5090406;28;20203;-64
2023/07/26 00:42:09;;;;;;;2.17;1.75;;;13.20;99.90;;;;;;5091186;28;20187;-64
2023/07/26 00:44:36;;;;;;;5.15;2.08;;;13.20;99.90;;;;;;5073890;28;20699;-64
2023/07/26 00:47:03;;;;;;;3.60;1.73;;;13.80;99.90;;;;;;5089237;28;20199;-64
2023/07/26 00:49:29;;;;;;;2.97;1.50;;;13.10;99.90;;;;;;5096261;28;20204;-63
2023/07/26 00:51:56;;;;;;;1.73;1.60;;;13.10;99.90;;;;;;5086344;28;20210;-64
2023/07/26 00:54:23;;;;;;;1.80;1.50;;;13.10;99.90;;;;;;5097516;28;20225;-64
2023/07/26 00:56:50;;;;;;;3.65;1.67;;;13.10;99.90;;;;;;5092547;28;20214;-64
2023/07/26 00:59:18;;;;;;;6.65;2.00;;;13.10;99.90;;;;;;5069704;28;20579;-64
2023/07/26 01:01:45;;;;;;;4.38;1.80;;;13.00;99.90;;;;;;5089045;28;20210;-64
2023/07/26 01:04:12;;;;;;;3.35;2.00;;;13.00;99.90;;;;;;5090614;28;20223;-64
2023/07/26 01:06:47;;;;;;;6.10;1.83;;;13.00;99.90;;;;;;5089473;28;20207;-64
2023/07/26 01:09:21;;;;;;;4.25;1.88;;;13.00;99.90;;;;;;5089928;28;20211;-64
2023/07/26 01:11:58;;;;;;;5.20;2.10;;;13.00;99.90;;;;;;5086853;28;20204;-64
2023/07/26 01:14:33;;;;;;;2.75;1.60;;;13.00;99.90;;;;;;5073131;28;20672;-64
2023/07/26 01:17:00;;;;;;;5.57;1.90;;;13.00;99.90;;;;;;5085302;28;20191;-65
2023/07/26 01:19:27;;;;;;;4.30;1.98;;;13.00;99.90;;;;;;5090617;28;20206;-64
2023/07/26 01:21:55;;;;;;;4.80;1.80;;;13.10;99.90;;;;;;5085004;28;20209;-65
2023/07/26 01:24:23;;;;;;;4.28;2.13;;;13.00;99.90;;;;;;5084142;28;20342;-64
2023/07/26 01:26:49;;;;;;;4.93;2.13;;;13.10;99.90;;;;;;5087441;28;20200;-65
2023/07/26 01:29:16;;;;;;;4.57;2.10;;;13.30;99.90;;;;;;5084574;28;20354;-64
2023/07/26 01:31:43;;;;;;;7.03;2.17;;;13.00;99.90;;;;;;5072608;28;21332;-64
2023/07/26 01:34:13;;;;;;;4.93;1.90;;;13.00;99.90;;;;;;5089372;28;20219;-64
2023/07/26 01:36:41;;;;;;;6.28;1.95;;;13.00;99.90;;;;;;5090069;28;20199;-64
2023/07/26 01:39:10;;;;;;;4.13;2.20;;;13.10;99.90;;;;;;5088669;28;20303;-64
2023/07/26 01:41:37;;;;;;;5.10;2.03;;;13.00;99.90;;;;;;5089069;28;20195;-64
2023/07/26 01:44:05;;;;;;;2.58;1.75;;;13.10;99.90;;;;;;5087914;28;20219;-65
2023/07/26 01:46:31;;;;;;;3.17;1.80;;;13.10;99.90;;;;;;5071189;28;20211;-64
2023/07/26 01:48:58;;;;;;;3.70;1.85;;;13.10;99.90;;;;;;5086979;28;20203;-65
2023/07/26 01:51:25;;;;;;;6.15;1.80;;;13.10;99.90;;;;;;5092475;28;20676;-64
2023/07/26 01:53:52;;;;;;;7.13;2.13;;;13.00;99.90;;;;;;5088612;28;20207;-65
2023/07/26 01:56:20;;;;;;;2.83;2.10;;;13.10;99.90;;;;;;5080601;28;20207;-64
2023/07/26 01:58:47;;;;;;;7.05;2.03;;;13.00;99.90;;;;;;5090938;28;20200;-64
2023/07/26 02:01:14;;;;;;;3.42;2.08;;;13.00;99.90;;;;;;5080710;28;20913;-64
2023/07/26 02:03:41;;;;;;;2.85;2.00;;;13.00;99.90;;;;;;5070931;28;20272;-64
2023/07/26 02:06:07;;;;;;;2.25;1.70;;;13.00;99.90;;;;;;5086095;28;20196;-64
2023/07/26 02:08:34;;;;;;;2.13;1.60;;;13.00;99.90;;;;;;5091169;28;20203;-65
2023/07/26 02:11:01;;;;;;;4.43;2.03;;;13.30;99.90;;;;;;5083538;28;20220;-64
2023/07/26 02:13:29;;;;;;;4.05;2.00;;;13.00;99.90;;;;;;5087456;28;20211;-65
2023/07/26 02:15:56;;;;;;;7.28;2.15;;;13.20;99.90;;;;;;5082620;28;20207;-64
2023/07/26 02:18:23;;;;;;;3.33;1.70;;;13.00;99.90;;;;;;5071414;28;20215;-66
2023/07/26 02:20:50;;;;;;;4.32;2.17;;;13.00;99.90;;;;;;5085081;28;20196;-66
2023/07/26 02:23:16;;;;;;;2.58;1.70;;;13.00;99.90;;;;;;5093489;28;20202;-64
2023/07/26 02:25:44;;;;;;;2.47;1.73;;;13.00;99.90;;;;;;5088541;28;20223;-64
2023/07/26 02:28:11;;;;;;;4.85;2.15;;;13.00;99.90;;;;;;5092511;28;20277;-64
2023/07/26 02:30:39;;;;;;;5.75;1.52;;;13.10;99.90;;;;;;5089615;28;20206;-64
2023/07/26 02:33:06;;;;;;;2.30;1.65;;;13.00;99.90;;;;;;5086966;28;21048;-64
2023/07/26 02:35:33;;;;;;;2.70;1.63;;;13.10;99.90;;;;;;5075094;28;20214;-64
2023/07/26 02:38:00;;;;;;;3.40;2.60;;;13.00;99.90;;;;;;5087856;28;20203;-64
2023/07/26 02:40:26;;;;;;;9.63;2.15;;;13.00;99.90;;;;;;5092177;28;20618;-64
2023/07/26 02:42:53;;;;;;;2.63;1.60;;;13.00;99.90;;;;;;5088287;28;20797;-64
2023/07/26 02:45:20;;;;;;;2.30;1.60;;;12.90;99.90;;;;;;5095857;28;20223;-64
2023/07/26 02:47:48;;;;;;;2.25;1.55;;;12.90;99.90;;;;;;5087392;28;20252;-64
2023/07/26 02:50:15;;;;;;;5.82;1.95;;;13.00;99.90;;;;;;5071707;28;20214;-64
2023/07/26 02:52:42;;;;;;;4.43;1.92;;;13.00;99.90;;;;;;5091320;28;20195;-64
2023/07/26 02:55:09;;;;;;;2.47;1.65;;;13.00;99.90;;;;;;5091356;28;20200;-64
2023/07/26 02:57:36;;;;;;;4.55;1.90;;;13.00;99.90;;;;;;5095372;28;20196;-64
2023/07/26 03:00:03;;;;;;;4.82;2.17;;;13.00;99.90;;;;;;5090684;28;20206;-64
2023/07/26 03:02:31;;;;;;;6.95;1.85;;;13.00;99.90;;;;;;5092284;28;20692;-64
2023/07/26 03:04:59;;;;;;;3.95;2.00;;;11.60;99.90;;;;;;5070063;28;20231;-64
2023/07/26 03:07:26;;;;;;;4.68;1.80;;;13.00;99.90;;;;;;5091027;28;20206;-64
2023/07/26 03:09:52;;;;;;;4.13;1.95;;;12.90;99.90;;;;;;5089849;28;20196;-64
2023/07/26 03:12:19;;;;;;;4.32;2.42;;;12.90;99.90;;;;;;5091006;28;20200;-64
2023/07/26 03:14:46;;;;;;;5.50;2.20;;;;;;;;;;5084183;28;20226;-64
2023/07/26 03:17:13;;;;;;;2.63;1.98;;;12.90;99.90;;;;;;5085568;28;20219;-64
2023/07/26 03:19:40;;;;;;;2.70;1.92;;;16.40;99.90;;;;;;5071663;28;20917;-64
2023/07/26 03:22:08;;;;;;;3.40;2.10;;;13.00;99.90;;;;;;5083849;28;20218;-64
2023/07/26 03:24:35;;;;;;;6.05;2.00;;;12.90;99.90;;;;;;5092171;28;20224;-65
2023/07/26 03:27:02;;;;;;;3.33;2.10;;;12.90;99.90;;;;;;5091344;28;20203;-64
2023/07/26 03:29:28;;;;;;;5.07;2.10;;;12.90;99.90;;;;;;5091801;28;20250;-64
2023/07/26 03:31:55;;;;;;;5.13;2.38;;;12.90;99.90;;;;;;5089141;28;20192;-64
2023/07/26 03:34:22;;;;;;;2.45;1.88;;;12.80;99.90;;;;;;5087826;28;20211;-64
2023/07/26 03:36:50;;;;;;;2.83;2.30;;;12.10;99.90;;;;;;5073657;28;20216;-65
2023/07/26 03:39:18;;;;;;;3.30;2.13;;;12.90;99.90;;;;;;5092821;28;20292;-64
2023/07/26 03:41:45;;;;;;;8.05;2.55;;;12.90;99.90;;;;;;5089144;28;20192;-64
2023/07/26 03:44:11;;;;;;;5.65;2.38;;;12.90;99.90;;;;;;5091949;28;20250;-64
2023/07/26 03:46:38;;;;;;;4.38;2.35;;;12.80;99.90;;;;;;5090949;28;20573;-64
2023/07/26 03:49:05;;;;;;;2.72;1.95;;;12.80;99.90;;;;;;5084771;28;20206;-66
2023/07/26 03:51:32;;;;;;;5.75;2.45;;;12.80;99.90;;;;;;5095110;28;20195;-65
2023/07/26 03:53:58;;;;;;;3.25;2.47;;;12.80;99.90;;;;;;5076504;28;20779;-64
2023/07/26 03:56:27;;;;;;;3.63;2.10;;;12.90;99.90;;;;;;5091747;28;21064;-65
2023/07/26 03:58:53;;;;;;;7.35;2.00;;;12.90;99.90;;;;;;5086291;28;20200;-64
2023/07/26 04:01:20;;;;;;;2.60;2.22;;;12.90;99.90;;;;;;5092718;28;20204;-64
2023/07/26 04:03:48;;;;;;;3.15;2.00;;;12.70;99.90;;;;;;5083756;28;20204;-64
2023/07/26 04:06:15;;;;;;;5.70;2.00;;;12.90;99.90;;;;;;5090154;28;20226;-64
2023/07/26 04:08:42;;;;;;;3.58;2.25;;;12.90;99.90;;;;;;5070423;28;20231;-64
2023/07/26 04:11:08;;;;;;;8.95;1.92;;;12.90;99.90;;;;;;5092675;28;20199;-64
2023/07/26 04:13:37;;;;;;;3.00;1.95;;;12.80;99.90;;;;;;5091591;28;20198;-70
2023/07/26 04:16:12;;;;;;;3.28;2.10;;;12.80;99.90;;;;;;5091076;28;20214;-64
2023/07/26 04:18:39;;;;;;;6.20;2.10;;;12.90;99.90;;;;;;5088454;28;20242;-64
2023/07/26 04:21:06;;;;;;;4.75;2.30;;;12.90;99.90;;;;;;5083361;28;20216;-64
2023/07/26 04:23:33;;;;;;;4.05;2.10;;;12.90;99.90;;;;;;5073779;28;20204;-64
2023/07/26 04:26:00;;;;;;;6.15;2.40;;;12.90;99.90;;;;;;5092835;28;20588;-64
2023/07/26 04:28:26;;;;;;;5.20;1.88;;;12.90;99.90;;;;;;5093760;28;20220;-64
2023/07/26 04:30:55;;;;;;;7.47;2.50;;;12.90;99.90;;;;;;5086418;28;20200;-64
2023/07/26 04:33:22;;;;;;;3.80;1.85;;;12.90;99.90;;;;;;5090249;28;20195;-64
2023/07/26 04:35:51;;;;;;;3.25;2.13;;;12.90;99.90;;;;;;5083860;28;20206;-65
2023/07/26 04:38:18;;;;;;;3.65;2.28;;;13.00;99.90;;;;;;5068268;28;21064;-64
2023/07/26 04:40:47;;;;;;;3.75;2.70;;;12.80;99.90;;;;;;5088353;28;20203;-65
2023/07/26 04:43:14;;;;;;;5.00;2.20;;;12.90;99.90;;;;;;5090915;28;20230;-64
2023/07/26 04:45:41;;;;;;;6.88;2.28;;;13.70;99.90;;;;;;5089676;28;20230;-64
2023/07/26 04:48:09;;;;;;;3.53;2.35;;;13.00;99.90;;;;;;5088325;28;20196;-64
2023/07/26 04:50:36;;;;;;;2.65;2.20;;;13.00;99.90;;;;;;5092248;28;20206;-65
2023/07/26 04:53:02;;;;;;;7.15;2.28;;;13.00;99.90;;;;;;5060841;28;21519;-64
2023/07/26 04:55:29;;;;;;;5.00;2.17;;;13.00;99.90;;;;;;5093608;28;20203;-64
2023/07/26 04:57:56;;;;;;;5.82;2.38;;;13.00;99.90;;;;;;5089531;28;20725;-65
2023/07/26 05:00:23;;;;;;;3.08;2.22;;;13.00;99.90;;;;;;5089860;28;20744;-65
2023/07/26 05:02:49;;;;;;;4.72;2.35;;;13.00;99.90;;;;;;5089350;28;20672;-65
2023/07/26 05:05:17;;;;;;;2.63;2.20;;;13.00;99.90;;;;;;5089524;28;20230;-64
2023/07/26 05:07:44;;;;;;;6.03;2.13;;;13.10;99.90;;;;;;5081429;28;20234;-65
2023/07/26 05:10:11;;;;;;;4.63;2.22;;;13.10;99.90;;;;;;5072148;28;20207;-64
2023/07/26 05:12:38;;;;;;;3.67;2.35;;;13.10;99.90;;;;;;5088177;28;20568;-65
2023/07/26 05:15:05;;;;;;;5.03;2.30;;;13.10;99.90;;;;;;5089727;28;21052;-64
2023/07/26 05:17:32;;;;;;;5.68;2.40;;;13.20;99.90;;;;;;5089021;28;20196;-65
2023/07/26 05:19:59;;;;;;;6.93;2.45;;;13.20;99.90;;;;;;5089523;28;20207;-64
2023/07/26 05:22:27;;;;;;;5.88;2.80;;;13.20;99.90;;;;;;5079035;28;20223;-64
2023/07/26 05:24:54;;;;;;;4.20;2.38;;;13.10;99.90;;;;;;5066886;28;20219;-65
2023/07/26 05:27:21;;;;;;;4.30;2.22;;;13.20;99.90;;;;;;5088860;28;20224;-64
2023/07/26 05:29:48;;;;;;;4.22;2.70;;;13.20;99.90;;;;;;5087946;28;20239;-64
2023/07/26 05:32:14;;;;;;;11.73;2.75;;;13.20;99.90;;;;;;5086894;28;20564;-64
2023/07/26 05:34:41;;;;;;;2.88;2.55;;;13.30;99.90;;;;;;5085539;28;20207;-65
2023/07/26 05:37:08;;;;;;;4.10;2.50;;;13.30;99.90;;;;;;5083466;28;21605;-64
2023/07/26 05:39:36;;;;;;;6.45;3.08;;;13.30;99.90;;;;;;5071122;28;20195;-65
2023/07/26 05:42:03;;;;;;;4.72;2.50;;;13.40;99.90;;;;;;5083530;28;20199;-64
2023/07/26 05:44:30;;;;;;;4.80;2.67;;;13.40;99.90;;;;;;5090814;28;20187;-64
2023/07/26 05:46:58;;;;;;;8.52;3.20;;;13.50;99.90;;;;;;5087407;28;20196;-65
2023/07/26 05:49:25;;;;;;;3.17;2.08;;;13.60;99.90;;;;;;5087738;28;20220;-64
2023/07/26 05:51:52;;;;;;;5.97;2.17;;;13.50;99.90;;;;;;5088250;28;20196;-66
2023/07/26 05:54:18;;;;;;;3.58;2.50;;;13.60;99.90;;;;;;5083764;28;20212;-65
2023/07/26 05:56:47;;;;;;;3.88;2.30;;;13.90;99.90;;;;;;5069657;28;20230;-64
2023/07/26 05:59:13;;;;;;;3.85;2.05;;;13.70;99.90;;;;;;5093858;28;21056;-65
2023/07/26 06:01:40;;;;;;;4.07;2.47;;;13.80;99.90;;;;;;5096020;28;20202;-65
2023/07/26 06:04:07;;;;;;;3.92;2.17;;;14.10;99.90;;;;;;5093813;28;20191;-64
2023/07/26 06:06:34;;;;;;;6.82;2.67;;;13.80;99.90;;;;;;5094606;28;20277;-64
2023/07/26 06:09:01;;;;;;;4.68;2.55;;;13.70;99.90;;;;;;5085952;28;21259;-64
2023/07/26 06:11:27;;;;;;;4.82;1.90;;;13.80;99.90;;;;;;5074477;28;20210;-64
2023/07/26 06:13:55;;;;;;;2.90;1.67;;;13.90;99.90;;;;;;5088482;28;21059;-64
2023/07/26 06:16:22;;;;;;;3.47;1.77;;;13.90;99.90;;;;;;5091385;27;20210;-64
2023/07/26 06:18:50;;;;;;;3.45;1.65;;;14.00;99.90;;;;;;5092455;28;20207;-65
2023/07/26 06:21:17;;;;;;;7.18;1.88;;;14.00;99.90;;;;;;5093343;28;20195;-64
2023/07/26 06:23:44;;;;;;;2.05;1.42;;;14.00;99.90;;;;;;5088990;28;20219;-64
2023/07/26 06:26:11;;;;;;;5.30;1.52;;;13.90;99.90;;;;;;5092172;28;20226;-65
2023/07/26 06:28:38;;;;;;;3.38;1.45;;;13.90;99.90;;;;;;5070035;27;20694;-65
2023/07/26 06:31:06;;;;;;;2.67;1.55;;;13.90;99.90;;;;;;5090234;28;20952;-64
2023/07/26 06:33:33;;;;;;;2.58;1.60;;;13.90;99.90;;;;;;5093168;28;20219;-65
2023/07/26 06:36:00;;;;;;;3.45;1.92;;;;;;;;;;5088862;28;20219;-65
2023/07/26 06:38:27;;;;;;;3.78;1.70;;;13.70;99.90;;;;;;5092686;28;20678;-65
2023/07/26 06:40:53;;;;;;;3.50;1.58;;;13.60;99.90;;;;;;5078351;28;21052;-65
2023/07/26 06:43:20;;;;;;;13.80;1.92;;;13.60;99.90;;;;;;5068553;28;20224;-65
2023/07/26 06:45:50;;;;;;;1.70;1.58;;;13.60;99.90;;;;;;5090109;27;20231;-65
2023/07/26 06:48:18;;;;;;;2.50;1.90;;;13.80;99.90;;;;;;5089333;28;20896;-65
2023/07/26 06:50:45;;;;;;;4.50;2.33;;;13.80;99.90;;;;;;5088235;28;20219;-65
2023/07/26 06:53:12;;;;;;;2.72;1.80;;;13.80;99.90;;;;;;5093100;28;20196;-67
2023/07/26 06:55:40;;;;;;;2.30;2.00;;;13.90;99.90;;;;;;5097320;28;20202;-65
2023/07/26 06:58:07;;;;;;;2.63;1.80;;;13.90;99.90;;;;;;5082298;28;20676;-66
2023/07/26 07:00:35;;;;;;;2.88;1.95;;;14.00;99.90;;;;;;5087136;28;20616;-65
2023/07/26 07:03:03;;;;;;;2.38;1.67;;;14.00;99.90;;;;;;5092957;28;20869;-65
2023/07/26 07:05:34;;;;;;;4.32;1.67;;;13.90;99.90;;;;;;5092957;28;20216;-65
2023/07/26 07:08:01;;;;;;;2.47;1.70;;;13.90;99.90;;;;;;5094500;28;20241;-66
2023/07/26 07:10:28;;;;;;;4.50;1.95;;;13.90;99.90;;;;;;5093664;28;22014;-65
2023/07/26 07:12:55;;;;;;;4.03;2.15;;;14.00;99.90;;;;;;5091141;28;20204;-65
2023/07/26 07:15:21;;;;;;;2.00;1.77;;;14.10;99.90;;;;;;5075303;28;20211;-65
2023/07/26 07:17:48;;;;;;;2.88;1.40;;;14.00;99.90;;;;;;5095246;28;20200;-65
2023/07/26 07:20:15;;;;;;;2.53;1.92;;;14.10;99.90;;;;;;5095845;28;20213;-65
2023/07/26 07:22:43;;;;;;;4.45;1.70;;;14.00;99.90;;;;;;5093254;28;20192;-66
2023/07/26 07:25:10;;;;;;;3.95;1.65;;;14.00;99.90;;;;;;5095092;28;20207;-65
2023/07/26 07:27:37;;;;;;;2.13;1.60;;;14.10;99.90;;;;;;5087944;28;20230;-65
2023/07/26 07:30:05;;;;;;;2.50;1.48;;;14.30;99.90;;;;;;5089215;28;20747;-65
2023/07/26 07:32:32;;;;;;;2.25;1.60;;;14.80;99.90;;;;;;5082057;28;20204;-65
2023/07/26 07:34:59;;;;;;;2.85;2.22;;;14.30;99.90;;;;;;5097280;27;20196;-65
2023/07/26 07:37:27;;;;;;;2.25;2.05;;;14.30;99.90;;;;;;5091559;28;20219;-65
2023/07/26 07:39:55;;;;;;;4.10;2.30;;;14.40;99.90;;;;;;5093947;28;20188;-65
2023/07/26 07:42:22;;;;;;;3.70;1.60;;;15.10;99.90;;;;;;5084130;28;20202;-65
2023/07/26 07:44:49;;;;;;;3.60;2.20;;;14.50;99.90;;;;;;5095296;28;20252;-65
2023/07/26 07:47:17;;;;;;;4.18;2.13;;;14.70;99.90;;;;;;5071838;27;20230;-65
2023/07/26 07:49:43;;;;;;;3.85;2.03;;;14.60;99.90;;;;;;5097132;27;21005;-65
2023/07/26 07:52:10;;;;;;;6.63;3.70;;;14.70;99.90;;;;;;5090060;28;20212;-66
2023/07/26 07:54:37;;;;;;;6.22;2.15;;;14.70;99.90;;;;;;5088942;28;20224;-65
2023/07/26 07:57:06;;;;;;;4.15;1.90;;;14.70;99.90;;;;;;5091510;28;20326;-69
2023/07/26 07:59:33;;;;;;;4.60;1.50;;;14.80;99.90;;;;;;5081371;28;20227;-66
2023/07/26 08:02:00;;;;;;;2.63;1.70;;;18.80;99.90;;;;;;5088521;27;20700;-66
2023/07/26 08:04:26;;;;;;;2.53;1.70;;;15.10;99.90;;;;;;5081906;28;20199;-65
2023/07/26 08:06:53;;;;;;;3.30;1.90;;;15.10;99.90;;;;;;5090978;28;20224;-65
2023/07/26 08:09:20;;;;;;;2.10;1.50;;;15.30;99.90;;;;;;5090412;28;20188;-65
2023/07/26 08:11:47;;;;;;;1.77;1.30;;;15.30;99.90;;;;;;5096005;28;20200;-65
2023/07/26 08:14:15;;;;;;;2.45;1.40;;;16.00;99.90;;;;;;5085382;28;20200;-65
2023/07/26 08:16:42;;;;;;;2.78;1.35;;;15.40;99.90;;;;;;5095055;28;20983;-65
2023/07/26 08:19:08;;;;;;;2.85;1.50;;;15.50;99.90;;;;;;5071276;28;20703;-66
2023/07/26 08:21:35;;;;;;;7.28;1.67;;;15.50;99.90;;;;;;5094738;28;20699;-65
2023/07/26 08:24:02;;;;;;;5.63;1.65;;;15.60;99.90;;;;;;5094412;28;20200;-66
2023/07/26 08:26:29;;;;;;;5.32;1.80;;;15.60;99.90;;;;;;5089767;28;20231;-65
2023/07/26 08:28:55;;;;;;;3.30;1.60;;;15.80;99.90;;;;;;5093543;28;20227;-65
2023/07/26 08:31:24;;;;;;;2.20;1.50;;;15.80;99.90;;;;;;5082160;28;21188;-65
2023/07/26 08:33:50;;;;;;;3.67;1.30;;;15.90;99.90;;;;;;5095595;28;20195;-65
2023/07/26 08:36:17;;;;;;;1.65;1.20;;;15.90;99.90;;;;;;5067973;28;20214;-66
2023/07/26 08:38:44;;;;;;;3.58;1.50;;;15.90;99.90;;;;;;5094437;28;20196;-65
2023/07/26 08:41:11;;;;;;;1.60;1.42;;;15.30;99.90;;;;;;5091095;28;20200;-65
2023/07/26 08:43:39;;;;;;;2.88;1.50;;;16.00;99.90;;;;;;5094232;28;20278;-65
2023/07/26 08:46:08;;;;;;;2.13;1.50;;;16.00;99.90;;;;;;5085151;28;20732;-65
2023/07/26 08:48:38;;;;;;;5.70;1.80;;;15.90;99.90;;;;;;5093675;28;20206;-65
2023/07/26 08:51:06;;;;;;;2.97;1.40;;;15.90;99.90;;;;;;5073027;28;20208;-65
2023/07/26 08:53:35;;;;;;;2.70;1.52;;;15.90;99.90;;;;;;5092766;28;21018;-65
2023/07/26 08:56:02;;;;;;;2.67;1.48;;;;;;;;;;5093655;28;20202;-65
2023/07/26 08:58:29;;;;;;;2.60;1.60;;;16.20;99.90;;;;;;5090134;28;20219;-65
2023/07/26 09:00:58;;;;;;;2.47;1.48;;;16.30;99.90;;;;;;5083697;28;20359;-65
2023/07/26 09:03:25;;;;;;;1.75;1.42;;;16.40;99.90;;;;;;5088435;28;20282;-65
2023/07/26 09:06:04;;;;;;;3.75;1.80;;;16.40;99.90;;;;;;5076923;28;20223;-65
2023/07/26 09:08:31;;;;;;;5.30;2.33;;;16.40;99.90;;;;;;5086696;28;20277;-65
2023/07/26 09:10:58;;;;;;;3.58;2.10;;;16.40;99.90;;;;;;5091579;28;20245;-65
2023/07/26 09:13:25;;;;;;;9.20;2.55;;;16.40;99.90;;;;;;5088355;28;21052;-65
2023/07/26 09:15:52;;;;;;;7.18;3.47;;;16.40;99.90;;;;;;5088024;28;20207;-65
2023/07/26 09:18:19;;;;;;;9.32;3.78;;;16.30;99.90;;;;;;5089869;28;20207;-65
2023/07/26 09:20:46;;;;;;;4.50;2.92;;;16.40;99.90;;;;;;5093945;28;20682;-65
2023/07/26 09:23:16;;;;;;;3.55;2.08;;;16.80;99.90;;;;;;5066465;28;20207;-65
2023/07/26 09:25:44;;;;;;;2.03;1.65;;;16.50;99.90;;;;;;5095667;28;20198;-65
2023/07/26 09:28:13;;;;;;;3.42;2.17;;;16.50;99.90;;;;;;5088996;28;20230;-66
2023/07/26 09:30:42;;;;;;;2.50;1.85;;;16.50;99.90;;;;;;5093630;28;20195;-65
2023/07/26 09:33:10;;;;;;;2.28;1.90;;;16.40;99.90;;;;;;5084057;28;20205;-65
2023/07/26 09:35:43;;;;;;;3.28;1.80;;;16.50;99.90;;;;;;5094042;28;20195;-65
2023/07/26 09:38:11;;;;;;;4.70;2.10;;;16.30;99.90;;;;;;5070402;28;20244;-65
2023/07/26 09:40:39;;;;;;;2.95;1.75;;;16.30;99.90;;;;;;5089284;28;20222;-65
2023/07/26 09:43:06;;;;;;;3.38;1.77;;;16.00;99.90;;;;;;5089968;28;20206;-65
2023/07/26 09:45:33;;;;;;;2.55;1.90;;;17.00;99.90;;;;;;5093662;28;20199;-65
2023/07/26 09:48:07;;;;;;;3.55;1.75;;;16.10;99.90;;;;;;5084702;28;20231;-65
2023/07/26 09:50:35;;;;;;;2.22;1.70;;;16.10;99.90;;;;;;5090034;28;20192;-65
2023/07/26 09:53:03;;;;;;;1.98;1.55;;;16.10;99.90;;;;;;5084867;28;20664;-65
2023/07/26 09:55:31;;;;;;;1.90;1.40;;;16.10;99.90;;;;;;5085085;28;21113;-65
2023/07/26 09:58:00;;;;;;;5.88;1.63;;;16.20;99.90;;;;;;5093840;28;20211;-65
2023/07/26 10:00:29;;;;;;;1.60;1.45;;;16.40;99.90;;;;;;5093238;28;20208;-65
2023/07/26 10:02:58;;;;;;;3.15;1.55;;;16.40;99.90;;;;;;5085839;28;20290;-65
2023/07/26 10:05:26;;;;;;;4.28;1.33;;;16.60;99.90;;;;;;5091463;28;20202;-65
2023/07/26 10:07:54;;;;;;;2.15;1.40;;;16.70;99.90;;;;;;5091986;28;20231;-67
2023/07/26 10:10:21;;;;;;;3.25;1.40;;;16.90;99.90;;;;;;5073494;28;20294;-65
2023/07/26 10:12:52;;;;;;;2.72;1.65;;;16.90;99.90;;;;;;5093245;28;20290;-65
2023/07/26 10:15:21;;;;;;;1.83;1.48;;;16.80;99.90;;;;;;5090296;28;20685;-65
2023/07/26 10:17:52;;;;;;;2.88;1.42;;;16.80;99.90;;;;;;5094310;28;20241;-64
2023/07/26 10:20:19;;;;;;;2.42;1.55;;;16.60;99.90;;;;;;5086164;28;20469;-65
2023/07/26 10:22:47;;;;;;;1.67;1.40;;;16.50;99.90;;;;;;5087178;28;20192;-64
2023/07/26 10:25:14;;;;;;;2.70;1.42;;;16.50;99.90;;;;;;5070594;28;20206;-65
2023/07/26 10:27:43;;;;;;;1.63;1.40;;;16.50;99.90;;;;;;5094971;28;20316;-64
2023/07/26 10:30:11;;;;;;;4.60;1.55;;;16.90;99.90;;;;;;5090415;28;20191;-65
2023/07/26 10:32:46;;;;;;;2.40;1.67;;;16.90;99.90;;;;;;5083221;28;20203;-65
2023/07/26 10:35:13;;;;;;;2.20;1.48;;;17.30;99.90;;;;;;5082345;28;20207;-65
2023/07/26 10:37:40;;;;;;;1.83;1.33;;;17.30;99.90;;;;;;5088139;28;20567;-64
2023/07/26 10:40:32;;;;;;;1.50;1.40;;;17.20;99.90;;;;;;5070147;28;20228;-65
2023/07/26 10:42:59;;;;;;;1.42;1.17;;;17.00;99.90;;;;;;5090299;28;20219;-65
2023/07/26 10:45:42;;;;;;;1.20;1.10;;;17.00;99.90;;;;;;5093749;28;20207;-65
2023/07/26 10:48:27;;;;;;;2.42;1.20;;;16.90;99.90;;;;;;5095634;28;20223;-64
2023/07/26 10:50:56;;;;;;;2.28;1.40;;;17.20;99.90;;;;;;5090985;28;21007;-65
2023/07/26 10:53:32;;;;;;;1.55;1.27;;;17.20;99.90;;;;;;5097521;28;20231;-65
2023/07/26 10:56:10;;;;;;;1.17;1.10;;;17.50;99.90;;;;;;5073295;28;20234;-64
2023/07/26 10:58:36;;;;;;;3.55;1.30;;;17.60;99.90;;;;;;5094343;28;20210;-65
2023/07/26 11:01:04;;;;;;;1.48;1.33;;;17.50;99.90;;;;;;5093952;28;20196;-65
2023/07/26 11:03:32;;;;;;;1.63;1.30;;;17.50;99.90;;;;;;5099322;27;20196;-65
2023/07/26 11:05:59;;;;;;;1.20;1.10;;;17.30;99.90;;;;;;5091266;28;20608;-65
2023/07/26 11:08:43;;;;;;;1.05;0.93;;;17.20;99.90;;;;;;5095479;28;20235;-64
2023/07/26 11:11:09;;;;;;;1.42;1.33;;;17.10;99.90;;;;;;5093098;28;20716;-64
2023/07/26 11:13:37;;;;;;;1.20;1.10;;;17.10;99.90;;;;;;5076852;28;20209;-65
2023/07/26 11:16:04;;;;;;;1.35;1.25;;;17.20;99.90;;;;;;5090346;28;20204;-64
2023/07/26 11:18:40;;;;;;;1.50;1.40;;;17.50;99.90;;;;;;5093782;28;20188;-65
2023/07/26 11:21:07;;;;;;;1.10;1.00;;;18.10;99.90;;;;;;5094005;28;20277;-64
2023/07/26 11:23:33;;;;;;;1.10;1.00;;;18.10;99.90;;;;;;5093812;28;20695;-65
2023/07/26 11:26:01;;;;;;;1.10;1.00;;;;;;;;;;5089686;28;20216;-64
2023/07/26 11:28:32;;;;;;;1.10;1.00;;;17.90;99.90;;;;;;5076109;28;20250;-65
2023/07/26 11:30:59;;;;;;;1.20;1.10;;;17.80;99.90;;;;;;5083985;28;20228;-65
2023/07/26 11:33:27;;;;;;;1.40;0.93;;;17.80;99.90;;;;;;5094357;28;20222;-64
2023/07/26 11:35:56;;;;;;;0.98;0.98;;;17.80;99.90;;;;;;5088224;28;20227;-65
2023/07/26 11:38:23;;;;;;;1.77;1.67;;;17.80;99.90;;;;;;5096850;28;20206;-65
2023/07/26 11:40:52;;;;;;;1.00;0.85;;;;;;;;;;5093934;28;20207;-68
2023/07/26 11:43:20;;;;;;;0.82;0.80;;;17.80;99.90;;;;;;5077446;28;20211;-65
2023/07/26 11:45:46;;;;;;;0.80;0.80;;;17.80;99.90;;;;;;5084181;28;20203;-65
2023/07/26 11:48:14;;;;;;;1.23;1.10;;;17.80;99.90;;;;;;5096715;28;20239;-64
2023/07/26 11:50:42;;;;;;;1.25;0.90;;;17.80;99.90;;;;;;5093110;28;20222;-65
2023/07/26 11:53:12;;;;;;;1.27;1.15;;;17.80;99.90;;;;;;5095521;28;20195;-65
2023/07/26 11:55:40;;;;;;;1.13;0.90;;;17.80;99.90;;;;;;5091051;28;20246;-65
2023/07/26 11:58:08;;;;;;;4.00;1.15;;;17.80;99.90;;;;;;5075132;27;20215;-64
2023/07/26 12:00:36;;;;;;;1.50;1.23;;;17.80;99.90;;;;;;5088766;28;20215;-65
2023/07/26 12:03:05;;;;;;;1.70;1.00;;;17.90;99.90;;;;;;5083558;28;20227;-64
2023/07/26 12:05:32;;;;;;;1.25;1.02;;;18.00;99.90;;;;;;5090216;28;20306;-65
2023/07/26 12:08:00;;;;;;;2.20;1.20;;;18.10;99.90;;;;;;5086447;28;20766;-64
2023/07/26 12:10:34;;;;;;;1.88;1.30;;;18.20;99.90;;;;;;5091450;28;20227;-65
2023/07/26 12:13:04;;;;;;;2.13;1.00;;;;;;;;;;5084775;28;20218;-64
2023/07/26 12:15:31;;;;;;;0.95;0.90;;;19.00;99.90;;;;;;5074092;28;20211;-65
2023/07/26 12:18:01;;;;;;;1.65;1.00;;;18.20;99.90;;;;;;5082394;27;20223;-64
2023/07/26 12:20:30;;;;;;;1.60;1.02;;;18.30;99.90;;;;;;5088872;28;20380;-64
2023/07/26 12:22:59;;;;;;;1.20;1.10;;;18.30;99.90;;;;;;5084253;28;20223;-65
2023/07/26 12:25:38;;;;;;;1.65;1.40;;;18.30;99.90;;;;;;5094997;28;20246;-64
2023/07/26 12:28:08;;;;;;;1.30;1.05;;;18.30;99.90;;;;;;5088840;28;20235;-65
2023/07/26 12:30:36;;;;;;;1.08;0.93;;;18.30;99.90;;;;;;5071984;28;20748;-65
2023/07/26 12:33:10;;;;;;;1.50;1.20;;;18.50;99.90;;;;;;5082615;28;20309;-64
2023/07/26 12:35:38;;;;;;;2.30;0.98;;;18.20;99.90;;;;;;5092567;28;20671;-67
2023/07/26 12:38:12;;;;;;;1.05;0.95;;;18.20;99.90;;;;;;5091633;28;20939;-65
2023/07/26 12:40:41;;;;;;;1.58;1.10;;;18.10;99.90;;;;;;5093185;28;20666;-65
2023/07/26 12:43:21;;;;;;;1.30;1.20;;;18.10;99.90;;;;;;5095808;28;20199;-65
2023/07/26 12:45:48;;;;;;;1.90;1.40;;;18.20;99.90;;;;;;5065951;28;21066;-65
2023/07/26 12:48:14;;;;;;;1.65;1.45;;;18.20;99.90;;;;;;5096061;28;20597;-64
2023/07/26 12:50:41;;;;;;;1.40;1.02;;;18.40;99.90;;;;;;5094090;28;20199;-64